Time;durP1;ratioP1;P1;durP2;ratioP2;P2;SDS_P1;SDS_P2;PMS_P1;PMS_P2;Temp;Humidity;BMP_temperature;BMP_pressure;BME280_temperature;BME280_humidity;BME280_pressure;Samples;Min_cycle;Max_cycle;Signal;HPM_P1;HPM_P2
2021/07/30 00:00:17;;;;;;;6.63;4.03;;;;;;;20.48;75.03;99271.03;4995080;28;20097;-67
2021/07/30 00:02:47;;;;;;;6.68;4.15;;;;;;;20.47;74.92;99280.56;4995016;28;20042;-67
2021/07/30 00:05:17;;;;;;;8.18;4.88;;;;;;;20.39;74.99;99276.66;4995096;28;20050;-67
2021/07/30 00:07:48;;;;;;;6.95;4.78;;;;;;;20.28;75.21;99278.91;4994935;28;20057;-67
2021/07/30 00:10:17;;;;;;;7.22;5.55;;;;;;;20.15;75.69;99272.59;4994939;28;20558;-67
2021/07/30 00:12:45;;;;;;;8.15;5.35;;;;;;;20.08;75.90;99277.22;4994913;28;20039;-67
2021/07/30 00:15:15;;;;;;;6.95;4.95;;;;;;;20.04;76.28;99280.84;4994539;28;20500;-67
2021/07/30 00:17:43;;;;;;;8.73;5.15;;;;;;;20.01;76.16;99278.41;4994776;28;20080;-67
2021/07/30 00:20:14;;;;;;;8.88;5.00;;;;;;;20.04;76.43;99275.66;4995170;28;20046;-67
2021/07/30 00:22:43;;;;;;;10.10;4.57;;;;;;;20.06;76.57;99274.69;4995068;28;20428;-67
2021/07/30 00:25:13;;;;;;;10.60;4.60;;;;;;;20.22;76.78;99284.34;4994830;28;20052;-67
2021/07/30 00:27:43;;;;;;;8.02;4.60;;;;;;;20.36;76.60;99284.56;4977307;28;20042;-67
2021/07/30 00:30:12;;;;;;;;;;;;;;;20.40;76.46;99283.50;4995042;28;20031;-67
2021/07/30 00:32:40;;;;;;;7.05;4.70;;;;;;;20.42;76.18;99277.34;4994650;28;19922;-67
2021/07/30 00:35:11;;;;;;;6.72;4.10;;;;;;;20.57;75.71;99283.56;4948165;28;20506;-69
2021/07/30 00:37:42;;;;;;;7.60;4.05;;;;;;;20.60;74.96;99280.81;4936364;29;20047;-68
2021/07/30 00:40:11;;;;;;;8.05;4.10;;;;;;;20.42;74.99;99276.53;4936508;29;20056;-67
2021/07/30 00:42:50;;;;;;;7.72;3.78;;;;;;;20.37;75.12;99273.31;4936647;29;20043;-67
2021/07/30 00:45:19;;;;;;;6.25;4.15;;;;;;;20.40;75.14;99283.50;4919941;29;20409;-67
2021/07/30 00:47:52;;;;;;;6.18;4.07;;;;;;;20.50;74.67;99279.56;4936875;29;20140;-67
2021/07/30 00:50:21;;;;;;;6.90;4.18;;;;;;;20.51;74.45;99281.28;4936564;29;20142;-67
2021/07/30 00:52:53;;;;;;;8.23;4.30;;;;;;;20.57;74.28;99275.78;4936735;29;20127;-67
2021/07/30 00:55:24;;;;;;;7.88;4.43;;;;;;;20.64;73.70;99284.94;4936620;29;20043;-67
2021/07/30 00:57:54;;;;;;;7.43;4.15;;;;;;;20.57;73.83;99286.16;4936690;29;20047;-68
2021/07/30 01:00:24;;;;;;;6.68;3.90;;;;;;;20.64;73.74;99279.75;4936751;29;20520;-68
2021/07/30 01:02:54;;;;;;;8.85;4.50;;;;;;;20.63;73.67;99289.31;4936397;29;20047;-68
2021/07/30 01:05:23;;;;;;;9.77;4.00;;;;;;;20.61;73.69;99283.34;4936983;29;20046;-69
2021/07/30 01:07:54;;;;;;;6.03;3.97;;;;;;;20.72;73.70;99280.25;4936394;29;20040;-67
2021/07/30 01:10:23;;;;;;;8.70;4.00;;;;;;;20.72;73.20;99282.84;4936924;29;20075;-67
2021/07/30 01:12:52;;;;;;;6.78;4.32;;;;;;;20.64;73.30;99284.94;4919035;29;20052;-67
2021/07/30 01:15:24;;;;;;;6.20;4.03;;;;;;;20.68;73.17;99273.53;4952898;29;20110;-67
2021/07/30 01:17:53;;;;;;;6.35;3.67;;;;;;;20.68;72.81;99278.72;4955822;29;20074;-67
2021/07/30 01:20:24;;;;;;;6.55;4.30;;;;;;;20.65;72.99;99274.53;4955845;29;20102;-67
2021/07/30 01:22:59;;;;;;;6.18;4.00;;;;;;;20.68;72.87;99273.53;4955523;29;20142;-67
2021/07/30 01:25:29;;;;;;;5.95;3.90;;;;;;;20.60;72.94;99265.28;4955326;29;20106;-67
2021/07/30 01:27:59;;;;;;;5.90;4.10;;;;;;;20.62;73.02;99284.19;4955686;29;20453;-68
2021/07/30 01:30:27;;;;;;;7.57;4.00;;;;;;;20.49;73.04;99272.72;4955328;29;20035;-69
2021/07/30 01:32:56;;;;;;;8.18;3.60;;;;;;;20.51;73.16;99270.91;4955043;28;20668;-69
2021/07/30 01:35:26;;;;;;;7.13;3.80;;;;;;;20.40;73.34;99267.97;4959273;29;20061;-67
2021/07/30 01:37:55;;;;;;;6.68;3.70;;;;;;;20.35;73.45;99269.91;4958861;28;20398;-67
2021/07/30 01:40:25;;;;;;;5.70;3.35;;;;;;;20.36;73.48;99275.06;4942074;29;20485;-68
2021/07/30 01:42:54;;;;;;;6.93;4.10;;;;;;;20.48;73.16;99265.84;4958983;29;20067;-69
2021/07/30 01:45:23;;;;;;;8.20;3.93;;;;;;;20.57;72.70;99270.59;4959449;29;20126;-69
2021/07/30 01:47:52;;;;;;;7.38;4.50;;;;;;;20.56;72.37;99269.75;4958824;29;20285;-68
2021/07/30 01:50:21;;;;;;;8.75;4.18;;;;;;;20.57;72.22;99265.41;4958657;29;20047;-67
2021/07/30 01:52:50;;;;;;;6.00;3.97;;;;;;;20.56;72.07;99268.94;4958666;29;20122;-67
2021/07/30 01:55:19;;;;;;;7.57;4.25;;;;;;;20.52;72.15;99262.19;4959037;28;20047;-67
2021/07/30 01:57:49;;;;;;;6.78;4.18;;;;;;;20.47;72.24;99269.34;4957644;28;20393;-68
2021/07/30 02:00:19;;;;;;;8.85;5.25;;;;;;;20.48;72.41;99265.84;4959440;29;20386;-68
2021/07/30 02:02:48;;;;;;;8.25;5.07;;;;;;;20.44;72.74;99264.31;4958457;29;20043;-67
2021/07/30 02:05:17;;;;;;;;;;;;;;;20.51;72.81;99261.38;4942094;29;20043;-68
2021/07/30 02:07:46;;;;;;;9.10;4.20;;;;;;;20.51;72.71;99266.56;4959006;29;20308;-68
2021/07/30 02:10:15;;;;;;;6.25;4.22;;;;;;;20.53;72.44;99269.06;4958368;28;20163;-67
2021/07/30 02:15:24;;;;;;;8.35;4.47;;;;;;;20.54;72.15;99265.53;4958549;29;20044;-68
2021/07/30 02:17:53;;;;;;;6.85;4.53;;;;;;;20.52;72.29;99267.38;4958582;29;20184;-68
2021/07/30 02:20:22;;;;;;;9.60;4.25;;;;;;;20.53;72.37;99267.31;4958536;29;20031;-67
2021/07/30 02:22:50;;;;;;;7.50;4.38;;;;;;;20.54;72.22;99271.59;4958090;28;20043;-67
2021/07/30 02:25:19;;;;;;;7.60;4.22;;;;;;;20.48;72.36;99271.03;4958456;29;20065;-68
2021/07/30 02:27:48;;;;;;;7.13;4.43;;;;;;;20.46;72.42;99267.69;4958103;29;20071;-69
2021/07/30 02:30:17;;;;;;;16.25;4.68;;;;;;;20.42;72.47;99268.75;4958678;29;20039;-69
2021/07/30 02:32:48;;;;;;;6.35;4.38;;;;;;;20.42;72.71;99269.56;4940617;29;20039;-67
2021/07/30 02:35:17;;;;;;;7.72;3.97;;;;;;;20.49;72.67;99275.31;4958176;29;20101;-67
2021/07/30 02:37:46;;;;;;;7.63;3.90;;;;;;;20.42;72.96;99272.16;4957836;29;20043;-68
2021/07/30 02:40:15;;;;;;;6.28;4.28;;;;;;;20.48;73.06;99265.84;4957927;28;20063;-69
2021/07/30 02:42:44;;;;;;;6.38;4.05;;;;;;;20.46;73.25;99267.69;4957896;29;20032;-68
2021/07/30 02:45:13;;;;;;;7.50;4.10;;;;;;;20.48;73.10;99268.44;4957362;28;20071;-67
2021/07/30 02:47:42;;;;;;;5.28;3.85;;;;;;;20.46;73.28;99272.88;4958035;29;20039;-68
2021/07/30 02:50:13;;;;;;;5.97;3.80;;;;;;;20.42;73.62;99268.75;4957765;28;20125;-67
2021/07/30 02:52:41;;;;;;;6.72;4.22;;;;;;;20.44;73.33;99279.88;4957689;29;20139;-67
2021/07/30 02:55:10;;;;;;;7.75;3.97;;;;;;;20.37;73.66;99276.72;4957507;29;20504;-68
2021/07/30 02:57:39;;;;;;;6.75;3.80;;;;;;;20.35;73.57;99275.94;4957531;29;20094;-69
2021/07/30 03:00:09;;;;;;;7.13;4.03;;;;;;;20.36;73.71;99276.81;4957556;29;20449;-69
2021/07/30 03:02:38;;;;;;;;;;;;;;;20.32;73.82;99275.28;4958195;29;20497;-68
2021/07/30 03:05:09;;;;;;;6.18;4.00;;;;;;;20.28;73.96;99271.13;4957321;29;19922;-67
2021/07/30 03:07:39;;;;;;;6.78;4.25;;;;;;;20.33;74.08;99266.56;4957340;29;20051;-67
2021/07/30 03:10:09;;;;;;;6.68;4.35;;;;;;;20.31;73.89;99268.41;4957974;29;20048;-67
2021/07/30 03:12:37;;;;;;;;;;;;;;;20.36;73.55;99263.84;4958018;29;20039;-67
2021/07/30 03:15:07;;;;;;;12.20;4.07;;;;;;;20.31;73.64;99268.41;4955998;28;19962;-67
2021/07/30 03:17:36;;;;;;;6.50;4.25;;;;;;;20.28;73.48;99268.53;4958114;29;20039;-67
2021/07/30 03:20:06;;;;;;;5.82;3.97;;;;;;;20.36;73.48;99276.81;4957143;29;20036;-67
2021/07/30 03:22:36;;;;;;;6.93;3.80;;;;;;;20.29;73.09;99280.59;4957194;29;20043;-67
2021/07/30 03:25:08;;;;;;;5.68;3.80;;;;;;;20.09;73.47;99281.47;4957065;29;20548;-68
2021/07/30 03:27:37;;;;;;;7.38;4.13;;;;;;;20.05;74.01;99278.19;4956863;29;20043;-69
2021/07/30 03:30:07;;;;;;;6.22;3.90;;;;;;;20.08;74.00;99276.38;4957017;29;20130;-67
2021/07/30 03:32:37;;;;;;;6.90;4.47;;;;;;;20.17;74.22;99276.78;4956939;29;20047;-68
2021/07/30 03:35:07;;;;;;;9.65;3.97;;;;;;;20.20;73.93;99275.81;4956649;29;20066;-68
2021/07/30 03:37:36;;;;;;;7.28;4.22;;;;;;;20.15;73.76;99270.00;4956809;29;20044;-68
2021/07/30 03:40:07;;;;;;;8.65;4.50;;;;;;;20.24;73.78;99272.19;4939606;29;20046;-67
2021/07/30 03:42:37;;;;;;;8.23;4.40;;;;;;;20.27;73.56;99278.09;4939437;29;20059;-67
2021/07/30 03:45:06;;;;;;;8.35;4.57;;;;;;;20.24;73.37;99278.22;4957240;29;20067;-67
2021/07/30 03:47:36;;;;;;;8.68;4.25;;;;;;;20.11;73.80;99281.41;4956995;29;20483;-67
2021/07/30 03:50:05;;;;;;;;;;;;;;;20.18;73.55;99277.63;4957280;29;20032;-68
2021/07/30 03:52:35;;;;;;;7.72;4.60;;;;;;;20.19;73.76;99279.31;4956876;29;19930;-69
2021/07/30 03:55:07;;;;;;;8.13;4.40;;;;;;;20.28;73.68;99287.53;4956091;28;20041;-69
2021/07/30 03:57:36;;;;;;;9.20;4.25;;;;;;;20.28;73.45;99291.84;4956468;29;20047;-68
2021/07/30 04:00:06;;;;;;;6.75;4.22;;;;;;;20.26;73.72;99285.91;4956245;29;20043;-69
2021/07/30 04:02:37;;;;;;;7.50;4.53;;;;;;;20.27;73.80;99282.41;4956446;29;20516;-69
2021/07/30 04:05:08;;;;;;;6.78;4.47;;;;;;;20.23;73.65;99280.91;4956681;29;20046;-69
2021/07/30 04:07:37;;;;;;;6.60;4.25;;;;;;;20.25;73.81;99279.88;4939141;29;20126;-69
2021/07/30 04:10:09;;;;;;;9.77;4.57;;;;;;;20.34;73.12;99289.00;4956142;29;20039;-68
2021/07/30 04:12:38;;;;;;;8.48;4.80;;;;;;;20.39;73.40;99276.66;4956525;29;20043;-69
2021/07/30 04:15:08;;;;;;;7.10;4.23;;;;;;;20.45;72.88;99290.16;4956063;29;20051;-69
2021/07/30 04:17:37;;;;;;;10.65;3.97;;;;;;;20.49;72.75;99283.91;4956085;29;20274;-69
2021/07/30 04:20:07;;;;;;;7.68;4.28;;;;;;;20.51;72.50;99282.13;4955963;29;20047;-69
2021/07/30 04:22:36;;;;;;;10.32;4.30;;;;;;;20.52;72.21;99282.94;4955978;29;20058;-69
2021/07/30 04:25:08;;;;;;;8.30;4.28;;;;;;;20.52;72.09;99280.34;4956379;29;20451;-69
2021/07/30 04:27:37;;;;;;;8.73;4.80;;;;;;;20.53;72.05;99271.66;4956007;29;20047;-69
2021/07/30 04:30:07;;;;;;;10.77;5.13;;;;;;;20.48;72.05;99278.81;4956001;29;20047;-69
2021/07/30 04:32:35;;;;;;;;;;;;;;;20.58;72.00;99277.47;4956608;29;20219;-69
2021/07/30 04:35:05;;;;;;;8.32;4.60;;;;;;;20.67;71.74;99277.03;4955625;29;20281;-69
2021/07/30 04:37:34;;;;;;;9.00;4.63;;;;;;;20.80;71.49;99283.31;4955754;29;20047;-68
2021/07/30 04:40:04;;;;;;;6.37;4.30;;;;;;;20.83;71.21;99277.94;4955702;29;20058;-69
2021/07/30 04:42:34;;;;;;;11.18;4.53;;;;;;;20.87;71.23;99273.47;4955670;29;20301;-69
2021/07/30 04:45:04;;;;;;;10.77;4.80;;;;;;;20.99;70.98;99270.28;4956357;29;20070;-69
2021/07/30 04:47:33;;;;;;;8.93;4.78;;;;;;;21.12;70.97;99277.41;4956042;29;20110;-68
2021/07/30 04:50:02;;;;;;;10.25;4.72;;;;;;;21.12;70.36;99267.00;4955602;29;20049;-69
2021/07/30 04:52:31;;;;;;;7.22;4.35;;;;;;;21.02;70.24;99268.34;4955807;29;20039;-69
2021/07/30 04:55:00;;;;;;;12.80;5.30;;;;;;;20.98;70.13;99276.38;4955491;29;20405;-69
2021/07/30 04:57:29;;;;;;;7.67;4.90;;;;;;;21.01;69.94;99273.63;4938367;29;20047;-69
2021/07/30 05:00:00;;;;;;;8.20;4.43;;;;;;;21.11;69.85;99274.88;4955769;29;20041;-69
2021/07/30 05:02:28;;;;;;;7.60;5.00;;;;;;;21.15;69.63;99274.66;4956154;29;20081;-69
2021/07/30 05:05:00;;;;;;;10.57;5.03;;;;;;;21.17;69.73;99262.44;4955541;29;20047;-68
2021/07/30 05:07:29;;;;;;;7.97;5.22;;;;;;;21.13;69.47;99276.50;4958373;28;20489;-68
2021/07/30 05:09:58;;;;;;;10.00;5.32;;;;;;;21.16;69.56;99272.91;4961798;28;20039;-68
2021/07/30 05:12:27;;;;;;;11.43;5.47;;;;;;;21.08;69.45;99272.44;4962175;28;20048;-69
2021/07/30 05:14:56;;;;;;;9.20;5.18;;;;;;;21.04;69.62;99271.69;4961619;29;20047;-68
2021/07/30 05:17:27;;;;;;;9.43;4.85;;;;;;;21.04;69.46;99274.28;4960658;28;20119;-68
2021/07/30 05:19:56;;;;;;;9.75;5.18;;;;;;;21.02;69.78;99273.53;4962321;29;20036;-69
2021/07/30 05:22:25;;;;;;;7.63;5.03;;;;;;;21.03;69.64;99275.22;4961736;28;20118;-68
2021/07/30 05:24:54;;;;;;;8.25;4.75;;;;;;;21.10;69.89;99271.44;4961755;29;20031;-69
2021/07/30 05:27:22;;;;;;;8.43;5.17;;;;;;;21.21;69.73;99274.31;4958124;28;20502;-69
2021/07/30 05:29:51;;;;;;;9.30;5.55;;;;;;;21.37;69.78;99269.22;4942744;29;20044;-68
2021/07/30 05:32:20;;;;;;;8.17;5.13;;;;;;;21.49;69.22;99270.34;4942307;29;20048;-69
2021/07/30 05:34:50;;;;;;;9.63;4.85;;;;;;;21.50;68.48;99266.84;4942290;29;20099;-69
2021/07/30 05:37:20;;;;;;;10.48;4.90;;;;;;;21.46;68.48;99265.28;4942433;29;20090;-69
2021/07/30 05:39:48;;;;;;;8.25;5.15;;;;;;;21.47;68.80;99261.78;4942257;29;20050;-69
2021/07/30 05:42:17;;;;;;;8.75;5.18;;;;;;;21.44;68.57;99270.59;4942353;29;20510;-69
2021/07/30 05:44:46;;;;;;;8.68;5.05;;;;;;;21.47;68.59;99269.59;4942333;29;20067;-69
2021/07/30 05:47:15;;;;;;;9.32;5.07;;;;;;;21.49;68.69;99267.75;4942177;29;20095;-68
2021/07/30 05:49:44;;;;;;;8.70;4.95;;;;;;;21.57;68.60;99268.19;4942353;29;20043;-69
2021/07/30 05:52:15;;;;;;;7.28;4.60;;;;;;;21.69;68.85;99275.34;4942206;29;20506;-69
2021/07/30 05:54:45;;;;;;;12.07;5.50;;;;;;;21.79;68.41;99276.53;4941166;29;20047;-69
2021/07/30 05:57:14;;;;;;;8.02;5.70;;;;;;;21.88;68.15;99276.91;4942225;29;20087;-69
2021/07/30 05:59:47;;;;;;;9.52;5.22;;;;;;;21.89;67.71;99280.34;4942208;29;20107;-69
2021/07/30 06:02:16;;;;;;;8.95;5.28;;;;;;;21.97;67.91;99275.59;4942532;29;20048;-69
2021/07/30 06:04:45;;;;;;;8.90;5.35;;;;;;;22.10;67.57;99276.59;4942368;29;20376;-69
2021/07/30 06:07:16;;;;;;;9.27;4.97;;;;;;;22.19;67.38;99278.72;4942033;29;20055;-69
2021/07/30 06:09:45;;;;;;;7.72;4.82;;;;;;;22.27;66.98;99283.47;4942035;29;20413;-69
2021/07/30 06:12:14;;;;;;;9.15;5.00;;;;;;;22.36;67.01;99281.22;4942193;29;20036;-69
2021/07/30 06:14:44;;;;;;;7.68;4.53;;;;;;;22.47;66.82;99286.69;4942052;29;20036;-69
2021/07/30 06:17:13;;;;;;;9.00;5.40;;;;;;;22.54;66.27;99288.00;4942161;29;20058;-69
2021/07/30 06:19:42;;;;;;;9.55;4.40;;;;;;;22.61;65.98;99289.38;4938998;29;20043;-69
2021/07/30 06:22:11;;;;;;;10.52;5.30;;;;;;;22.60;65.66;99285.06;4939001;29;20043;-69
2021/07/30 06:24:41;;;;;;;9.68;5.10;;;;;;;22.71;65.48;99281.06;4939325;29;20474;-69
2021/07/30 06:27:11;;;;;;;8.50;4.97;;;;;;;22.74;65.26;99284.34;4938828;29;20098;-69
2021/07/30 06:29:40;;;;;;;9.02;5.20;;;;;;;22.93;64.89;99284.13;4938915;29;20052;-69
2021/07/30 06:32:09;;;;;;;6.60;4.75;;;;;;;23.00;64.33;99281.06;4938783;29;20039;-69
2021/07/30 06:34:38;;;;;;;7.65;4.30;;;;;;;23.18;64.02;99280.00;4938751;29;20371;-67
2021/07/30 06:37:06;;;;;;;8.80;4.10;;;;;;;23.34;63.60;99279.94;4938668;29;20390;-68
2021/07/30 06:39:35;;;;;;;7.05;4.70;;;;;;;23.42;63.46;99272.53;4938601;29;20106;-69
2021/07/30 06:42:06;;;;;;;8.57;4.60;;;;;;;23.54;63.29;99274.41;4938703;29;20106;-69
2021/07/30 06:44:35;;;;;;;6.57;4.20;;;;;;;23.62;63.33;99272.19;4921836;29;20282;-69
2021/07/30 06:47:05;;;;;;;6.93;4.53;;;;;;;23.67;62.90;99280.56;4921570;29;20047;-66
2021/07/30 06:49:38;;;;;;;6.50;4.38;;;;;;;23.70;62.41;99267.34;4938584;29;20048;-67
2021/07/30 06:52:08;;;;;;;10.07;4.60;;;;;;;23.81;62.14;99270.13;4938449;29;20063;-67
2021/07/30 06:54:37;;;;;;;6.72;4.07;;;;;;;23.90;62.05;99264.34;4938508;29;20066;-68
2021/07/30 06:57:07;;;;;;;8.32;4.28;;;;;;;23.93;61.79;99274.59;4938297;29;20094;-69
2021/07/30 06:59:37;;;;;;;8.02;4.25;;;;;;;24.00;61.82;99268.06;4938405;29;20052;-69
2021/07/30 07:02:06;;;;;;;9.55;4.68;;;;;;;24.12;61.87;99270.88;4938269;29;20126;-69
2021/07/30 07:04:36;;;;;;;6.57;4.15;;;;;;;24.17;61.57;99266.22;4938335;29;20060;-69
2021/07/30 07:07:06;;;;;;;6.47;3.80;;;;;;;24.21;61.05;99265.09;4938526;29;20048;-69
2021/07/30 07:09:35;;;;;;;6.72;4.47;;;;;;;24.25;61.19;99258.75;4938357;29;20048;-68
2021/07/30 07:12:04;;;;;;;7.15;4.30;;;;;;;24.43;61.27;99257.56;4938140;29;20048;-69
2021/07/30 07:14:34;;;;;;;;;;;;;;;24.63;61.07;99257.13;4938368;29;20069;-69
2021/07/30 07:17:04;;;;;;;10.73;4.50;;;;;;;24.80;60.68;99246.47;4938071;29;19962;-67
2021/07/30 07:19:33;;;;;;;8.35;4.13;;;;;;;24.99;60.36;99246.91;4938168;29;20044;-67
2021/07/30 07:22:02;;;;;;;9.35;4.63;;;;;;;25.20;59.91;99240.25;4937780;29;20039;-67
2021/07/30 07:24:31;;;;;;;7.20;3.97;;;;;;;25.37;59.23;99243.50;4937897;29;20058;-68
2021/07/30 07:27:00;;;;;;;7.53;4.72;;;;;;;25.51;59.21;99240.78;4938002;29;20054;-68
2021/07/30 07:29:31;;;;;;;9.20;4.10;;;;;;;25.63;58.79;99239.94;4938160;29;20035;-68
2021/07/30 07:32:03;;;;;;;9.32;4.30;;;;;;;25.69;58.58;99244.78;4936738;29;20051;-69
2021/07/30 07:34:33;;;;;;;7.43;3.92;;;;;;;25.71;57.65;99245.50;4937499;29;20056;-69
2021/07/30 07:37:01;;;;;;;7.32;4.03;;;;;;;25.75;57.11;99254.78;4937785;29;20072;-69
2021/07/30 07:39:31;;;;;;;9.00;4.15;;;;;;;25.82;57.09;99254.25;4937563;29;20070;-67
2021/07/30 07:42:00;;;;;;;6.50;3.88;;;;;;;25.81;56.50;99251.75;4937799;29;20044;-68
2021/07/30 07:44:29;;;;;;;7.35;4.40;;;;;;;25.83;56.95;99260.34;4937482;29;20050;-69
2021/07/30 07:46:59;;;;;;;5.90;4.00;;;;;;;25.79;56.84;99258.88;4937473;29;20039;-69
2021/07/30 07:49:30;;;;;;;8.40;4.47;;;;;;;25.83;57.93;99258.56;4937404;29;20063;-69
2021/07/30 07:51:59;;;;;;;6.50;4.10;;;;;;;25.80;56.91;99265.78;4937319;29;20039;-69
2021/07/30 07:54:48;;;;;;;7.97;4.30;;;;;;;25.96;57.54;99261.16;4937719;29;20443;-69
2021/07/30 07:57:17;;;;;;;7.68;4.07;;;;;;;26.07;57.04;99253.38;4937259;29;20044;-69
2021/07/30 07:59:46;;;;;;;6.60;3.80;;;;;;;26.21;56.55;99250.66;4937276;29;20042;-69
2021/07/30 08:02:15;;;;;;;6.68;4.15;;;;;;;26.46;56.35;99255.81;4937166;29;20062;-69
2021/07/30 08:04:46;;;;;;;7.15;4.00;;;;;;;26.55;53.92;99254.28;4937449;29;20044;-69
2021/07/30 08:07:17;;;;;;;7.88;3.65;;;;;;;26.67;53.28;99247.31;4937145;29;20079;-69
2021/07/30 08:09:46;;;;;;;6.00;3.63;;;;;;;26.75;52.43;99250.22;4937206;29;20062;-68
2021/07/30 08:12:15;;;;;;;5.13;3.63;;;;;;;26.88;51.92;99243.97;4937070;29;20094;-69
2021/07/30 08:14:44;;;;;;;8.35;4.03;;;;;;;27.07;51.40;99246.03;4936817;29;20490;-69
2021/07/30 08:17:14;;;;;;;5.78;3.58;;;;;;;27.13;51.03;99245.59;4936877;29;20074;-69
2021/07/30 08:19:47;;;;;;;6.43;4.30;;;;;;;27.21;50.55;99243.25;4935841;29;20062;-69
2021/07/30 08:22:16;;;;;;;7.57;3.75;;;;;;;27.45;51.29;99235.31;4937031;29;20095;-69
2021/07/30 08:24:45;;;;;;;6.72;3.70;;;;;;;27.71;50.49;99232.34;4937428;29;20032;-69
2021/07/30 08:27:15;;;;;;;6.68;3.58;;;;;;;27.81;50.24;99230.66;4936705;29;20127;-69
2021/07/30 08:29:44;;;;;;;7.10;4.07;;;;;;;27.85;49.74;99229.47;4937122;29;20439;-69
2021/07/30 08:32:14;;;;;;;6.53;3.92;;;;;;;27.87;50.02;99232.81;4936776;29;20055;-68
2021/07/30 08:34:45;;;;;;;5.53;4.07;;;;;;;27.91;50.26;99238.63;4936548;29;20059;-68
2021/07/30 08:37:14;;;;;;;5.57;3.83;;;;;;;27.96;49.45;99220.75;4936588;29;20514;-69
2021/07/30 08:39:43;;;;;;;6.57;3.95;;;;;;;28.03;48.59;99226.38;4936611;29;20114;-69
2021/07/30 08:42:15;;;;;;;5.88;3.58;;;;;;;28.09;48.60;99220.66;4936204;29;20047;-69
2021/07/30 08:44:44;;;;;;;6.93;3.60;;;;;;;28.22;48.59;99226.59;4936564;29;20058;-68
2021/07/30 08:47:14;;;;;;;7.03;3.53;;;;;;;28.50;47.24;99226.03;4936854;29;20474;-69
2021/07/30 08:49:45;;;;;;;5.00;3.40;;;;;;;28.39;46.98;99220.78;4936473;29;20464;-69
2021/07/30 08:52:15;;;;;;;6.13;3.63;;;;;;;28.48;46.98;99222.69;4936687;29;20578;-69
2021/07/30 08:54:44;;;;;;;5.25;3.33;;;;;;;28.69;46.79;99220.97;4936546;29;20135;-68
2021/07/30 08:57:13;;;;;;;5.90;3.58;;;;;;;28.54;45.36;99216.91;4936506;29;20075;-69
2021/07/30 08:59:42;;;;;;;;;;;;;;;28.25;46.06;99215.81;4936790;29;20502;-68
2021/07/30 09:02:11;;;;;;;6.22;3.60;;;;;;;28.16;45.96;99213.94;4936154;29;19974;-69
2021/07/30 09:04:40;;;;;;;5.35;3.55;;;;;;;28.30;46.45;99218.91;4936355;29;20506;-69
2021/07/30 09:07:10;;;;;;;4.75;2.95;;;;;;;28.47;45.56;99218.38;4936626;29;20072;-69
2021/07/30 09:09:53;;;;;;;6.28;3.42;;;;;;;28.61;45.44;99217.28;4936457;29;20067;-69
2021/07/30 09:12:23;;;;;;;5.63;3.25;;;;;;;28.75;45.52;99214.34;4936273;29;20490;-69
2021/07/30 09:14:52;;;;;;;5.35;3.25;;;;;;;28.96;44.97;99208.13;4936136;29;20108;-69
2021/07/30 09:17:39;;;;;;;6.30;3.55;;;;;;;29.17;45.00;99198.47;4936105;29;20062;-69
2021/07/30 09:20:10;;;;;;;5.85;3.70;;;;;;;29.29;45.07;99193.16;4936766;29;20139;-69
2021/07/30 09:22:53;;;;;;;6.05;3.50;;;;;;;29.39;45.39;99183.50;4936145;29;20052;-69
2021/07/30 09:25:34;;;;;;;5.43;3.45;;;;;;;29.57;43.88;99181.91;4936501;29;20043;-69
2021/07/30 09:28:05;;;;;;;6.57;3.47;;;;;;;29.82;43.83;99179.69;4936094;29;20050;-69
2021/07/30 09:30:35;;;;;;;6.85;3.67;;;;;;;30.11;42.85;99187.66;4936250;29;20047;-69
2021/07/30 09:33:04;;;;;;;6.75;3.05;;;;;;;30.15;42.17;99183.75;4935774;29;20047;-69
2021/07/30 09:35:58;;;;;;;5.55;3.35;;;;;;;29.77;42.12;99173.16;4935993;29;20048;-69
2021/07/30 09:38:29;;;;;;;5.97;3.60;;;;;;;30.00;42.46;99179.84;4936557;29;20051;-68
2021/07/30 09:41:12;;;;;;;5.28;3.38;;;;;;;30.10;42.37;99183.34;4935237;29;20458;-69
2021/07/30 09:43:46;;;;;;;4.70;3.13;;;;;;;30.17;42.40;99184.47;4935995;29;20055;-69
2021/07/30 09:46:16;;;;;;;4.75;3.17;;;;;;;30.02;41.91;99172.66;4936738;29;20122;-69
2021/07/30 09:48:49;;;;;;;6.13;3.35;;;;;;;29.87;42.31;99167.91;4935821;29;20058;-69
2021/07/30 09:51:19;;;;;;;6.47;3.53;;;;;;;29.72;42.58;99180.59;4935925;29;20052;-69
2021/07/30 09:53:51;;;;;;;6.75;3.50;;;;;;;29.72;42.80;99162.16;4936694;29;20048;-69
2021/07/30 09:56:23;;;;;;;4.57;3.10;;;;;;;29.74;43.22;99162.88;4939611;29;20048;-69
2021/07/30 09:58:58;;;;;;;5.63;3.50;;;;;;;29.51;42.94;99162.25;4939524;29;20040;-69
2021/07/30 10:01:28;;;;;;;4.85;3.20;;;;;;;29.47;42.87;99150.31;4939495;29;20062;-69
2021/07/30 10:03:59;;;;;;;6.38;3.55;;;;;;;29.62;42.97;99145.50;4939789;29;20074;-69
2021/07/30 10:06:29;;;;;;;5.15;3.20;;;;;;;29.90;42.17;99144.78;4939450;29;20040;-69
2021/07/30 10:08:59;;;;;;;5.35;3.10;;;;;;;30.18;42.04;99146.63;4939382;29;20075;-69
2021/07/30 10:11:37;;;;;;;5.32;3.45;;;;;;;30.34;41.26;99135.56;4939290;29;20051;-69
2021/07/30 10:14:07;;;;;;;8.83;3.60;;;;;;;30.41;41.12;99134.88;4939040;29;20047;-69
2021/07/30 10:16:57;;;;;;;7.45;3.17;;;;;;;30.82;41.05;99127.59;4939093;29;20043;-69
2021/07/30 10:19:28;;;;;;;5.47;3.30;;;;;;;31.09;40.27;99130.34;4939150;29;20048;-69
2021/07/30 10:21:59;;;;;;;5.75;3.50;;;;;;;30.93;40.65;99127.47;4939226;29;20082;-69
2021/07/30 10:24:34;;;;;;;5.75;3.33;;;;;;;30.62;40.94;99124.16;4938958;29;20051;-68
2021/07/30 10:27:06;;;;;;;4.85;3.25;;;;;;;30.47;40.67;99123.75;4938812;29;20142;-69
2021/07/30 10:29:57;;;;;;;5.05;3.30;;;;;;;30.71;40.85;99128.59;4939263;29;20050;-70
2021/07/30 10:33:02;;;;;;;7.13;2.92;;;;;;;31.01;39.69;99117.03;4939499;29;20046;-69
2021/07/30 10:35:43;;;;;;;6.07;3.08;;;;;;;31.30;39.22;99125.66;4938680;29;20130;-69
2021/07/30 10:38:21;;;;;;;6.07;3.40;;;;;;;31.25;39.08;99122.63;4938757;29;20135;-69
2021/07/30 10:41:11;;;;;;;4.47;3.05;;;;;;;30.89;38.97;99112.91;4938678;29;20059;-69
2021/07/30 10:44:05;;;;;;;4.90;3.05;;;;;;;30.75;39.14;99113.31;4938773;29;20036;-69
2021/07/30 10:46:36;;;;;;;9.63;3.10;;;;;;;30.52;39.45;99118.91;4938980;29;20036;-69
2021/07/30 10:49:27;;;;;;;5.72;3.28;;;;;;;30.48;39.47;99108.78;4938600;29;20139;-69
2021/07/30 10:52:25;;;;;;;4.90;3.03;;;;;;;30.62;40.01;99108.34;4938838;29;20376;-69
2021/07/30 10:54:54;;;;;;;5.35;3.42;;;;;;;30.78;40.45;99103.34;4938514;29;20062;-69
2021/07/30 10:57:44;;;;;;;5.30;3.22;;;;;;;30.68;40.29;99104.31;4938126;29;20510;-69
2021/07/30 11:00:13;;;;;;;6.40;3.72;;;;;;;30.76;40.64;99104.47;4938828;29;20040;-69
2021/07/30 11:03:05;;;;;;;5.28;3.40;;;;;;;31.27;40.33;99099.56;4938268;29;20047;-69
2021/07/30 11:06:07;;;;;;;4.93;3.28;;;;;;;31.72;39.45;99100.47;4938135;29;20036;-69
2021/07/30 11:09:02;;;;;;;5.38;3.45;;;;;;;31.89;39.13;99100.66;4938153;29;20506;-69
2021/07/30 11:11:37;;;;;;;6.32;3.45;;;;;;;31.98;38.86;99099.78;4938079;29;20040;-69
2021/07/30 11:14:08;;;;;;;4.72;3.40;;;;;;;32.15;38.99;99096.31;4937995;29;20079;-69
2021/07/30 11:16:37;;;;;;;6.22;3.90;;;;;;;32.15;38.06;99096.31;4938075;29;20070;-69
2021/07/30 11:19:07;;;;;;;5.45;3.75;;;;;;;32.19;38.68;99102.94;4938039;29;20051;-69
2021/07/30 11:21:37;;;;;;;5.80;3.45;;;;;;;32.40;37.92;99096.34;4937978;29;20139;-69
2021/07/30 11:24:08;;;;;;;5.88;3.67;;;;;;;32.45;38.31;99083.50;4938238;29;20039;-69
2021/07/30 11:26:38;;;;;;;7.38;4.20;;;;;;;32.33;38.34;99084.72;4937899;29;20055;-69
2021/07/30 11:29:28;;;;;;;8.38;4.13;;;;;;;32.31;38.77;99085.84;4937889;29;20043;-69
2021/07/30 11:31:58;;;;;;;5.82;3.92;;;;;;;32.36;38.58;99094.16;4937787;29;20131;-69
2021/07/30 11:34:29;;;;;;;10.05;3.88;;;;;;;32.23;37.82;99091.06;4937508;29;20055;-69
2021/07/30 11:37:01;;;;;;;6.35;4.00;;;;;;;32.17;38.27;99087.25;4937532;29;20134;-69
2021/07/30 11:39:32;;;;;;;6.03;3.88;;;;;;;32.26;38.56;99088.13;4937694;29;20447;-69
2021/07/30 11:42:02;;;;;;;5.60;4.07;;;;;;;32.30;38.29;99076.25;4937996;29;20083;-69
2021/07/30 11:44:42;;;;;;;5.38;3.95;;;;;;;31.88;38.26;99077.84;4937648;29;20053;-69
2021/07/30 11:47:11;;;;;;;5.63;3.70;;;;;;;31.81;38.26;99082.91;4938206;29;20062;-69
2021/07/30 11:49:43;;;;;;;6.15;3.95;;;;;;;31.69;38.56;99084.94;4937552;29;20040;-69
2021/07/30 11:52:21;;;;;;;5.85;3.90;;;;;;;31.94;38.92;99077.25;4937341;29;20075;-69
2021/07/30 11:54:50;;;;;;;5.82;3.90;;;;;;;32.24;39.11;99079.53;4937586;29;20043;-69